Time;durP1;ratioP1;P1;durP2;ratioP2;P2;SDS_P1;SDS_P2;PMS_P1;PMS_P2;Temp;Humidity;BMP_temperature;BMP_pressure;BME280_temperature;BME280_humidity;BME280_pressure;Samples;Min_cycle;Max_cycle;Signal;HPM_P1;HPM_P2
2023/04/20 00:01:40;;;;;;;8.73;6.33;;;8.10;99.90;;;;;;5000688;28;20191;-82
2023/04/20 00:04:07;;;;;;;10.07;6.80;;;8.10;99.90;;;;;;5001514;28;20235;-82
2023/04/20 00:06:33;;;;;;;9.53;6.77;;;8.10;99.90;;;;;;5000477;28;20748;-83
2023/04/20 00:09:00;;;;;;;7.30;6.27;;;8.00;99.90;;;;;;4983943;28;20196;-83
2023/04/20 00:11:27;;;;;;;9.60;6.17;;;8.00;99.90;;;;;;5001105;28;20183;-84
2023/04/20 00:13:53;;;;;;;11.10;6.97;;;8.00;99.90;;;;;;5001482;28;20192;-83
2023/04/20 00:16:18;;;;;;;10.43;7.13;;;8.00;99.90;;;;;;4983673;28;20208;-82
2023/04/20 00:18:48;;;;;;;10.80;7.30;;;7.90;99.90;;;;;;5003066;28;20193;-82
2023/04/20 00:21:14;;;;;;;8.03;6.53;;;8.00;99.90;;;;;;4983995;28;20304;-82
2023/04/20 00:23:40;;;;;;;10.30;7.03;;;7.90;99.90;;;;;;5000906;28;20208;-83
2023/04/20 00:26:06;;;;;;;7.77;6.30;;;7.90;99.90;;;;;;5000918;28;20200;-83
2023/04/20 00:28:32;;;;;;;10.77;6.77;;;8.00;99.90;;;;;;4983499;28;20556;-82
2023/04/20 00:30:58;;;;;;;7.40;5.90;;;7.90;99.90;;;;;;5001466;28;20188;-83
2023/04/20 00:33:23;;;;;;;9.20;7.70;;;7.90;99.90;;;;;;5001151;28;20211;-83
2023/04/20 00:35:49;;;;;;;9.23;6.37;;;7.90;99.90;;;;;;4983464;28;20344;-83
2023/04/20 00:38:15;;;;;;;9.07;6.73;;;7.90;99.90;;;;;;5001245;28;20629;-83
2023/04/20 00:40:47;;;;;;;8.33;6.97;;;7.90;99.90;;;;;;5001510;28;20630;-83
2023/04/20 00:43:14;;;;;;;10.30;7.20;;;7.90;99.90;;;;;;4998278;28;20203;-83
2023/04/20 00:45:40;;;;;;;9.47;6.87;;;7.80;99.90;;;;;;5000252;28;20188;-83
2023/04/20 00:48:06;;;;;;;12.27;6.90;;;7.80;99.90;;;;;;5000813;28;20183;-83
2023/04/20 00:50:33;;;;;;;9.90;7.07;;;7.70;99.90;;;;;;5001261;28;20173;-83
2023/04/20 00:53:00;;;;;;;13.00;7.50;;;7.70;99.90;;;;;;5001030;28;20195;-83
2023/04/20 00:55:26;;;;;;;12.87;7.40;;;7.70;99.90;;;;;;5000685;28;20192;-84
2023/04/20 00:57:52;;;;;;;11.93;6.67;;;7.70;99.90;;;;;;5000882;28;20542;-83
2023/04/20 01:00:19;;;;;;;11.57;7.00;;;7.60;99.90;;;;;;5000095;28;20191;-83
2023/04/20 01:02:48;;;;;;;8.53;7.30;;;7.60;99.90;;;;;;4983066;28;20216;-83
2023/04/20 01:05:14;;;;;;;11.07;6.70;;;7.60;99.90;;;;;;4983346;28;20208;-83
2023/04/20 01:07:40;;;;;;;9.13;6.90;;;7.60;99.90;;;;;;4983682;28;20184;-84
2023/04/20 01:10:07;;;;;;;12.73;7.23;;;7.60;99.90;;;;;;5001050;28;20292;-84
2023/04/20 01:12:33;;;;;;;10.37;7.27;;;7.50;99.90;;;;;;5000792;28;20244;-82
2023/04/20 01:14:58;;;;;;;8.43;6.30;;;7.50;99.90;;;;;;5000342;28;20299;-81
2023/04/20 01:17:24;;;;;;;7.93;6.77;;;7.50;99.90;;;;;;4982793;28;20188;-81
2023/04/20 01:19:50;;;;;;;12.37;6.70;;;7.50;99.90;;;;;;4999126;28;20180;-81
2023/04/20 01:22:17;;;;;;;8.47;6.80;;;7.50;99.90;;;;;;4999028;28;20165;-82
2023/04/20 01:24:43;;;;;;;11.37;7.80;;;7.50;99.90;;;;;;5000176;28;20673;-81
2023/04/20 01:27:08;;;;;;;9.37;7.07;;;7.50;99.90;;;;;;4982762;28;20639;-83
2023/04/20 01:29:34;;;;;;;10.00;7.03;;;7.50;99.90;;;;;;5001608;28;20188;-82
2023/04/20 01:32:00;;;;;;;9.97;6.80;;;7.50;99.90;;;;;;5000504;28;20192;-82
2023/04/20 01:34:26;;;;;;;9.00;6.93;;;7.50;99.90;;;;;;4998273;28;20177;-81
2023/04/20 01:36:52;;;;;;;7.27;6.40;;;7.50;99.90;;;;;;4998262;28;20172;-82
2023/04/20 01:39:18;;;;;;;8.63;6.63;;;7.50;99.90;;;;;;4981296;28;20180;-83
2023/04/20 01:41:44;;;;;;;8.47;7.43;;;7.60;99.90;;;;;;4998465;28;20196;-82
2023/04/20 01:44:10;;;;;;;8.30;6.83;;;7.60;99.90;;;;;;4998328;28;20191;-83
2023/04/20 01:46:40;;;;;;;14.80;7.13;;;7.60;99.90;;;;;;4981164;28;20200;-83
2023/04/20 01:49:07;;;;;;;9.20;7.13;;;7.60;99.90;;;;;;4999308;28;20196;-83
2023/04/20 01:51:36;;;;;;;10.10;7.20;;;7.50;99.90;;;;;;4999986;28;20173;-83
2023/04/20 01:54:02;;;;;;;9.60;7.33;;;7.50;99.90;;;;;;4982532;28;20250;-83
2023/04/20 01:56:28;;;;;;;11.23;7.00;;;7.50;99.90;;;;;;5000179;28;20231;-84
2023/04/20 01:58:54;;;;;;;8.37;6.43;;;7.50;99.90;;;;;;4981525;28;20304;-84
2023/04/20 02:01:20;;;;;;;8.20;6.83;;;7.50;99.90;;;;;;4981685;28;20211;-84
2023/04/20 02:03:47;;;;;;;9.53;6.43;;;7.40;99.90;;;;;;4999732;28;20208;-84
2023/04/20 02:06:14;;;;;;;9.33;6.47;;;7.40;99.90;;;;;;4998819;28;20192;-82
2023/04/20 02:08:39;;;;;;;8.43;6.43;;;7.40;99.90;;;;;;4981905;28;20184;-82
2023/04/20 02:11:05;;;;;;;9.40;6.43;;;7.40;99.90;;;;;;4981741;28;20250;-82
2023/04/20 02:13:31;;;;;;;9.20;6.23;;;7.40;99.90;;;;;;4998647;28;20203;-82
2023/04/20 02:15:57;;;;;;;8.30;6.40;;;7.40;99.90;;;;;;4981852;28;20208;-82
2023/04/20 02:18:23;;;;;;;9.73;6.20;;;7.40;99.90;;;;;;4998943;28;20176;-82
2023/04/20 02:20:49;;;;;;;9.60;6.53;;;7.40;99.90;;;;;;4998649;28;20180;-82
2023/04/20 02:23:15;;;;;;;9.33;6.43;;;7.40;99.90;;;;;;4982624;28;20208;-82
2023/04/20 02:25:41;;;;;;;8.43;6.33;;;7.30;99.90;;;;;;5001300;28;20184;-82
2023/04/20 02:28:06;;;;;;;7.33;6.03;;;7.30;99.90;;;;;;5001704;28;20263;-83
2023/04/20 02:30:32;;;;;;;8.83;6.20;;;7.30;99.90;;;;;;4983575;28;20177;-83
2023/04/20 02:32:58;;;;;;;7.17;5.73;;;7.30;99.90;;;;;;4984282;28;20192;-83
2023/04/20 02:35:24;;;;;;;9.40;5.87;;;7.20;99.90;;;;;;4998910;28;20192;-83
2023/04/20 02:37:50;;;;;;;8.77;6.17;;;7.30;99.90;;;;;;4982555;28;20184;-83
2023/04/20 02:40:16;;;;;;;8.10;5.70;;;7.20;99.90;;;;;;5000597;28;20524;-82
2023/04/20 02:42:42;;;;;;;14.30;6.87;;;7.20;99.90;;;;;;4999656;28;20207;-82
2023/04/20 02:45:09;;;;;;;8.27;5.77;;;7.20;99.90;;;;;;4999849;28;20198;-81
2023/04/20 02:47:34;;;;;;;9.47;6.33;;;7.20;99.90;;;;;;4981601;28;20181;-83
2023/04/20 02:50:00;;;;;;;7.20;5.73;;;7.20;99.90;;;;;;4982525;28;20184;-83
2023/04/20 02:52:26;;;;;;;7.80;6.00;;;7.20;99.90;;;;;;4999885;28;20183;-84
2023/04/20 02:54:52;;;;;;;9.30;5.33;;;7.20;99.90;;;;;;5000044;28;20188;-81
2023/04/20 02:57:17;;;;;;;12.03;6.47;;;7.20;99.90;;;;;;5000511;28;20177;-84
2023/04/20 02:59:43;;;;;;;9.57;6.30;;;7.20;99.90;;;;;;5000886;28;20177;-85
2023/04/20 03:02:09;;;;;;;7.87;5.90;;;7.20;99.90;;;;;;4985250;28;20319;-84
2023/04/20 03:04:35;;;;;;;7.57;6.03;;;7.20;99.90;;;;;;4983998;28;20722;-83
2023/04/20 03:07:01;;;;;;;9.23;6.27;;;7.30;99.90;;;;;;5003341;28;20172;-84
2023/04/20 03:09:27;;;;;;;11.23;6.23;;;7.20;99.90;;;;;;5004634;28;20177;-84
2023/04/20 03:11:53;;;;;;;6.87;5.87;;;7.20;99.90;;;;;;5004459;28;20642;-84
2023/04/20 03:14:19;;;;;;;9.50;6.73;;;7.20;99.90;;;;;;5002246;28;20213;-82
2023/04/20 03:16:45;;;;;;;6.93;5.93;;;7.20;99.90;;;;;;5001380;28;20180;-83
2023/04/20 03:19:10;;;;;;;7.03;6.13;;;7.20;99.90;;;;;;5001468;28;20188;-83
2023/04/20 03:21:36;;;;;;;8.00;6.40;;;7.20;99.90;;;;;;5001720;28;20235;-83
2023/04/20 03:24:03;;;;;;;8.33;6.70;;;7.20;99.90;;;;;;5001796;28;20197;-82
2023/04/20 03:26:29;;;;;;;10.33;6.07;;;7.20;99.90;;;;;;5001329;28;20196;-84
2023/04/20 03:28:55;;;;;;;8.60;6.60;;;7.20;99.90;;;;;;5001277;28;20177;-84
2023/04/20 03:31:20;;;;;;;7.70;6.43;;;7.20;99.90;;;;;;4984456;28;20189;-85
2023/04/20 03:33:46;;;;;;;11.00;7.10;;;7.20;99.90;;;;;;4984811;28;20189;-85
2023/04/20 03:36:12;;;;;;;8.80;7.17;;;7.20;99.90;;;;;;5001851;28;20198;-85
2023/04/20 03:38:38;;;;;;;10.97;7.40;;;7.20;99.90;;;;;;5002547;28;20185;-84
2023/04/20 03:41:04;;;;;;;8.13;7.27;;;7.20;99.90;;;;;;5002531;28;20318;-84
2023/04/20 03:43:30;;;;;;;8.73;7.77;;;7.20;99.90;;;;;;5002043;28;20208;-85
2023/04/20 03:45:55;;;;;;;9.00;7.90;;;7.10;99.90;;;;;;4984656;28;20693;-84
2023/04/20 03:48:21;;;;;;;9.47;7.83;;;7.10;99.90;;;;;;5001866;28;20172;-84
2023/04/20 03:50:47;;;;;;;10.80;7.70;;;7.10;99.90;;;;;;4999351;28;20185;-84
2023/04/20 03:53:12;;;;;;;11.50;8.00;;;7.00;99.90;;;;;;5001429;28;20264;-84
2023/04/20 03:55:38;;;;;;;8.93;7.67;;;7.00;99.90;;;;;;4983361;28;20616;-82
2023/04/20 03:58:08;;;;;;;13.77;8.50;;;7.00;99.90;;;;;;5001495;28;20180;-81
2023/04/20 04:00:34;;;;;;;11.30;7.93;;;7.00;99.90;;;;;;4984526;28;20191;-81
2023/04/20 04:02:59;;;;;;;11.13;8.63;;;7.00;99.90;;;;;;5003031;28;20201;-81
2023/04/20 04:05:25;;;;;;;10.77;7.90;;;7.00;99.90;;;;;;5002446;28;20271;-81
2023/04/20 04:07:51;;;;;;;13.90;7.63;;;7.00;99.90;;;;;;5001809;28;20172;-82
2023/04/20 04:10:17;;;;;;;14.07;8.03;;;7.00;99.90;;;;;;4984054;28;20181;-82
2023/04/20 04:12:46;;;;;;;12.67;8.20;;;7.00;99.90;;;;;;4984596;28;20173;-81
2023/04/20 04:15:12;;;;;;;8.57;7.43;;;7.00;99.90;;;;;;5001707;28;20291;-81
2023/04/20 04:17:38;;;;;;;13.00;8.07;;;7.00;99.90;;;;;;4983623;28;20204;-81
2023/04/20 04:20:07;;;;;;;10.00;8.40;;;6.90;99.90;;;;;;5001211;28;20181;-81
2023/04/20 04:22:33;;;;;;;11.13;8.20;;;6.90;99.90;;;;;;5001007;28;20168;-82
2023/04/20 04:24:59;;;;;;;13.47;8.03;;;6.90;99.90;;;;;;5000810;28;20605;-81
2023/04/20 04:27:28;;;;;;;13.93;7.83;;;6.90;99.90;;;;;;4983508;28;20184;-80
2023/04/20 04:29:55;;;;;;;11.70;8.47;;;6.90;99.90;;;;;;4981972;28;20248;-82
2023/04/20 04:32:23;;;;;;;11.30;8.60;;;6.90;99.90;;;;;;5001854;28;20212;-82
2023/04/20 04:34:49;;;;;;;10.33;8.60;;;6.90;99.90;;;;;;4983397;28;20200;-82
2023/04/20 04:37:15;;;;;;;9.93;8.20;;;6.80;99.90;;;;;;5000519;28;20231;-81
2023/04/20 04:39:40;;;;;;;10.23;7.90;;;6.80;99.90;;;;;;4982952;28;20276;-81
2023/04/20 04:42:06;;;;;;;14.03;8.47;;;6.80;99.90;;;;;;5001144;28;20188;-82
2023/04/20 04:44:32;;;;;;;11.50;8.17;;;6.80;99.90;;;;;;5001185;28;20201;-81
2023/04/20 04:46:58;;;;;;;10.27;8.53;;;6.70;99.90;;;;;;5000683;28;20175;-81
2023/04/20 04:49:24;;;;;;;9.10;7.60;;;6.80;99.90;;;;;;5000849;28;20263;-81
2023/04/20 04:51:50;;;;;;;11.90;8.53;;;6.80;99.90;;;;;;4999982;28;20183;-82
2023/04/20 04:54:15;;;;;;;13.30;8.30;;;6.70;99.90;;;;;;4999429;28;20191;-81
2023/04/20 04:56:41;;;;;;;10.37;7.40;;;6.70;99.90;;;;;;4982201;28;20179;-80
2023/04/20 04:59:07;;;;;;;12.77;8.37;;;6.70;99.90;;;;;;4978488;28;20204;-75
2023/04/20 05:01:32;;;;;;;12.10;7.83;;;6.80;99.90;;;;;;4995061;28;20176;-74
2023/04/20 05:03:58;;;;;;;9.87;7.63;;;6.80;99.90;;;;;;4995204;28;20259;-74
2023/04/20 05:06:24;;;;;;;10.27;8.97;;;6.70;99.90;;;;;;4995702;28;20551;-75
2023/04/20 05:08:50;;;;;;;10.50;8.37;;;6.80;99.90;;;;;;4978048;28;20176;-74
2023/04/20 05:11:15;;;;;;;9.97;8.00;;;6.70;99.90;;;;;;4995452;28;20262;-75
2023/04/20 05:13:41;;;;;;;9.00;7.60;;;6.60;99.90;;;;;;4996081;28;20189;-75
2023/04/20 05:16:07;;;;;;;12.60;8.63;;;6.60;99.90;;;;;;4996971;28;20250;-74
2023/04/20 05:18:33;;;;;;;9.23;7.80;;;6.60;99.90;;;;;;4978576;28;20192;-74
2023/04/20 05:20:59;;;;;;;11.90;8.07;;;6.50;99.90;;;;;;4977678;28;20616;-74
2023/04/20 05:23:24;;;;;;;11.40;8.97;;;6.50;99.90;;;;;;4995714;28;20258;-74
2023/04/20 05:25:50;;;;;;;8.83;7.63;;;6.40;99.90;;;;;;4995414;28;20196;-75
2023/04/20 05:28:16;;;;;;;9.20;8.20;;;6.30;99.90;;;;;;4994969;28;20173;-75
2023/04/20 05:30:42;;;;;;;9.70;8.70;;;6.30;99.90;;;;;;4976961;28;20242;-75
2023/04/20 05:33:08;;;;;;;10.83;8.73;;;6.20;99.90;;;;;;4994545;28;20181;-75
2023/04/20 05:35:34;;;;;;;9.90;8.90;;;6.20;99.90;;;;;;4994650;28;20197;-75
2023/04/20 05:38:04;;;;;;;11.83;9.00;;;6.10;99.90;;;;;;4976889;28;20706;-75
2023/04/20 05:40:31;;;;;;;9.87;8.87;;;6.10;99.90;;;;;;4994469;28;20637;-75
2023/04/20 05:42:56;;;;;;;11.40;9.57;;;6.20;99.90;;;;;;4994847;28;20204;-75
2023/04/20 05:45:22;;;;;;;13.73;9.43;;;6.10;99.90;;;;;;4994512;28;20677;-75
2023/04/20 05:47:52;;;;;;;10.00;8.57;;;6.10;99.90;;;;;;4994733;28;20169;-75
2023/04/20 05:50:18;;;;;;;9.43;8.50;;;6.00;99.90;;;;;;4994703;28;20157;-75
2023/04/20 05:52:45;;;;;;;12.60;9.57;;;6.00;99.90;;;;;;4978286;28;20173;-77
2023/04/20 05:55:10;;;;;;;10.43;9.33;;;6.00;99.90;;;;;;4977520;28;20203;-76
2023/04/20 05:57:41;;;;;;;10.33;9.13;;;6.00;99.90;;;;;;4977343;28;20176;-77
2023/04/20 06:00:12;;;;;;;10.93;9.27;;;6.00;99.90;;;;;;4994532;28;20168;-77
2023/04/20 06:02:39;;;;;;;11.53;9.50;;;6.00;99.90;;;;;;4977379;28;20173;-77
2023/04/20 06:05:05;;;;;;;11.33;8.83;;;5.90;99.90;;;;;;4994488;28;20280;-76
2023/04/20 06:07:31;;;;;;;10.57;9.27;;;6.00;99.90;;;;;;4995014;28;20187;-76
2023/04/20 06:09:59;;;;;;;11.93;9.67;;;6.00;99.90;;;;;;4977633;28;20168;-76
2023/04/20 06:12:25;;;;;;;10.70;8.97;;;6.00;99.90;;;;;;4977482;28;20180;-76
2023/04/20 06:14:51;;;;;;;15.40;9.70;;;6.00;99.90;;;;;;4977347;28;20231;-75
2023/04/20 06:17:16;;;;;;;10.60;8.97;;;6.10;99.90;;;;;;4995395;28;20252;-76
2023/04/20 06:19:42;;;;;;;9.83;8.83;;;6.10;99.90;;;;;;4978363;28;20172;-76
2023/04/20 06:22:08;;;;;;;13.90;9.47;;;6.10;99.90;;;;;;4977896;28;20184;-76
2023/04/20 06:24:35;;;;;;;11.10;9.60;;;6.20;99.90;;;;;;4996634;28;20204;-75
2023/04/20 06:27:01;;;;;;;11.30;9.43;;;6.20;99.90;;;;;;4996452;28;20172;-75
2023/04/20 06:29:28;;;;;;;10.10;8.87;;;6.20;99.90;;;;;;4998275;28;20161;-75
2023/04/20 06:31:53;;;;;;;11.50;9.60;;;6.30;99.90;;;;;;4980969;28;20211;-76
2023/04/20 06:34:19;;;;;;;12.57;9.33;;;6.30;99.90;;;;;;4996684;28;20188;-75
2023/04/20 06:36:45;;;;;;;12.53;9.50;;;6.30;99.90;;;;;;4997027;28;20184;-76
2023/04/20 06:39:11;;;;;;;10.43;8.20;;;6.40;99.90;;;;;;4978459;28;20210;-76
2023/04/20 06:41:37;;;;;;;9.80;8.80;;;6.40;99.90;;;;;;4978645;28;20573;-75
2023/04/20 06:44:04;;;;;;;12.87;9.17;;;6.40;99.90;;;;;;4997187;28;20214;-76
2023/04/20 06:46:30;;;;;;;11.67;8.53;;;6.40;99.90;;;;;;4998416;28;20188;-76
2023/04/20 06:48:56;;;;;;;10.07;8.23;;;6.50;99.90;;;;;;4980952;28;20187;-76
2023/04/20 06:51:22;;;;;;;13.30;8.57;;;6.50;99.90;;;;;;4980999;28;20172;-75
2023/04/20 06:53:47;;;;;;;12.17;9.13;;;6.50;99.90;;;;;;4998481;28;20505;-77
2023/04/20 06:56:13;;;;;;;10.43;8.63;;;6.50;99.90;;;;;;4982223;28;20200;-77
2023/04/20 06:58:39;;;;;;;10.57;8.63;;;6.50;99.90;;;;;;4998317;28;20157;-75
2023/04/20 07:01:05;;;;;;;9.63;8.43;;;6.50;99.90;;;;;;4997992;28;20165;-75
2023/04/20 07:03:30;;;;;;;9.93;8.93;;;6.50;99.90;;;;;;4997465;28;20215;-75
2023/04/20 07:05:56;;;;;;;10.70;9.07;;;6.50;99.90;;;;;;4997905;28;20227;-75
2023/04/20 07:08:22;;;;;;;10.77;8.70;;;6.60;99.90;;;;;;4997685;28;20187;-75
2023/04/20 07:10:48;;;;;;;10.47;8.20;;;6.60;99.90;;;;;;4997587;28;20677;-75
2023/04/20 07:13:13;;;;;;;11.33;9.03;;;6.70;99.90;;;;;;4997434;28;20652;-76
2023/04/20 07:15:39;;;;;;;11.87;9.73;;;6.80;99.90;;;;;;4997152;28;20220;-75
2023/04/20 07:18:05;;;;;;;13.07;9.30;;;6.80;99.90;;;;;;4997757;28;20168;-75
2023/04/20 07:20:31;;;;;;;10.30;8.73;;;6.90;99.90;;;;;;4997348;28;20163;-76
2023/04/20 07:22:56;;;;;;;11.97;8.80;;;6.80;99.90;;;;;;4997160;28;20204;-76
2023/04/20 07:25:23;;;;;;;10.23;9.00;;;6.90;99.90;;;;;;4997183;28;20192;-76
2023/04/20 07:27:49;;;;;;;11.87;9.07;;;6.90;99.90;;;;;;4997382;28;20163;-75
2023/04/20 07:30:15;;;;;;;11.00;9.00;;;6.90;99.90;;;;;;4979591;28;20180;-75
2023/04/20 07:32:41;;;;;;;13.27;8.50;;;6.90;99.90;;;;;;4979679;28;20585;-75
2023/04/20 07:35:07;;;;;;;12.13;9.90;;;6.90;99.90;;;;;;4996996;28;20215;-75
2023/04/20 07:37:33;;;;;;;15.97;9.17;;;6.90;99.90;;;;;;4979514;28;20176;-75
2023/04/20 07:39:59;;;;;;;13.10;9.70;;;6.90;99.90;;;;;;4978998;28;20660;-75
2023/04/20 07:42:25;;;;;;;12.00;9.40;;;6.90;99.90;;;;;;4996912;28;20173;-75
2023/04/20 07:44:51;;;;;;;15.33;10.03;;;6.90;99.90;;;;;;4996962;28;20234;-75
2023/04/20 07:47:16;;;;;;;11.03;9.83;;;6.90;99.90;;;;;;4996887;28;20534;-75
2023/04/20 07:49:42;;;;;;;11.73;9.63;;;6.90;99.90;;;;;;4996862;28;20315;-75
2023/04/20 07:52:09;;;;;;;10.60;9.50;;;7.00;99.90;;;;;;4996193;28;20183;-75
2023/04/20 07:54:35;;;;;;;11.00;9.83;;;7.00;99.90;;;;;;4979291;28;20669;-76
2023/04/20 07:57:02;;;;;;;15.27;10.73;;;7.00;99.90;;;;;;4997126;28;20192;-76
2023/04/20 07:59:28;;;;;;;13.67;9.63;;;6.90;99.90;;;;;;4997845;28;20157;-76
2023/04/20 08:01:59;;;;;;;14.70;9.83;;;6.90;99.90;;;;;;4981571;28;20213;-76
2023/04/20 08:04:26;;;;;;;11.63;9.90;;;6.90;99.90;;;;;;4998984;28;20199;-75
2023/04/20 08:06:52;;;;;;;13.27;9.27;;;6.90;99.90;;;;;;4997435;28;20686;-75
2023/04/20 08:09:17;;;;;;;14.13;9.60;;;7.00;99.90;;;;;;4997757;28;20248;-75
2023/04/20 08:11:45;;;;;;;13.30;9.97;;;7.00;99.90;;;;;;4979990;28;20169;-75
2023/04/20 08:14:11;;;;;;;12.70;10.10;;;7.00;99.90;;;;;;4996788;28;20246;-75
2023/04/20 08:16:37;;;;;;;12.33;9.90;;;7.10;99.90;;;;;;4980270;28;20211;-78
2023/04/20 08:19:08;;;;;;;14.53;9.97;;;7.10;99.90;;;;;;5007761;28;20233;-77
2023/04/20 08:21:38;;;;;;;16.70;10.13;;;7.00;99.90;;;;;;4997617;28;20218;-77
2023/04/20 08:24:04;;;;;;;13.23;9.73;;;7.00;99.90;;;;;;4997773;28;20201;-77
2023/04/20 08:26:30;;;;;;;13.63;10.00;;;7.10;99.90;;;;;;4997378;28;20184;-77
2023/04/20 08:28:56;;;;;;;12.53;10.33;;;7.20;99.90;;;;;;4979419;28;20184;-78
2023/04/20 08:31:22;;;;;;;10.67;9.37;;;7.40;99.90;;;;;;4996808;28;20182;-78
2023/04/20 08:33:48;;;;;;;11.87;9.10;;;7.80;99.90;;;;;;4996128;28;20177;-78
2023/04/20 08:36:14;;;;;;;10.70;8.63;;;8.30;99.90;;;;;;4979073;28;20196;-78
2023/04/20 08:38:39;;;;;;;12.07;9.13;;;8.50;99.90;;;;;;4996287;28;20541;-78
2023/04/20 08:41:05;;;;;;;11.83;8.23;;;8.70;99.90;;;;;;4996397;28;20223;-78
2023/04/20 08:43:31;;;;;;;10.63;8.70;;;9.00;99.90;;;;;;4995814;28;20287;-78
2023/04/20 08:45:59;;;;;;;10.77;8.23;;;9.00;99.90;;;;;;4996212;28;20330;-75
2023/04/20 08:48:29;;;;;;;9.77;8.60;;;9.10;99.90;;;;;;4995778;28;20219;-75
2023/04/20 08:50:55;;;;;;;9.50;8.50;;;9.00;99.90;;;;;;4995655;28;20542;-77
2023/04/20 08:53:21;;;;;;;9.97;8.60;;;9.10;99.90;;;;;;4978064;28;20263;-76
2023/04/20 08:55:48;;;;;;;10.47;7.93;;;9.30;99.90;;;;;;4978154;28;20227;-76
2023/04/20 08:58:14;;;;;;;9.50;7.83;;;9.50;99.90;;;;;;4978356;28;20184;-76
2023/04/20 09:00:48;;;;;;;9.80;8.53;;;9.60;99.90;;;;;;4978670;28;20180;-76
2023/04/20 09:03:14;;;;;;;9.30;7.53;;;9.30;99.90;;;;;;4998219;28;20192;-76
2023/04/20 09:05:40;;;;;;;8.17;7.20;;;9.20;99.90;;;;;;4998176;28;20266;-76
2023/04/20 09:08:07;;;;;;;8.23;7.43;;;8.90;99.90;;;;;;4978951;28;20697;-76
2023/04/20 09:10:43;;;;;;;8.20;7.40;;;8.70;99.90;;;;;;4995873;28;20218;-76
2023/04/20 09:13:22;;;;;;;7.87;6.90;;;8.60;99.90;;;;;;4996010;28;20176;-77
2023/04/20 09:15:47;;;;;;;8.27;7.37;;;8.40;99.90;;;;;;4995566;28;20696;-77
2023/04/20 09:18:14;;;;;;;7.83;7.03;;;8.20;99.90;;;;;;4978143;28;20169;-77
2023/04/20 09:20:40;;;;;;;8.27;7.00;;;8.10;99.90;;;;;;4995445;28;20635;-77
2023/04/20 09:23:17;;;;;;;10.63;8.00;;;7.90;99.90;;;;;;4994977;28;20200;-77
2023/04/20 09:25:45;;;;;;;9.53;8.33;;;7.70;99.90;;;;;;4977505;28;20618;-77
2023/04/20 09:28:12;;;;;;;8.67;7.60;;;7.80;99.90;;;;;;4977640;28;20180;-75
2023/04/20 09:30:43;;;;;;;9.07;8.17;;;8.10;99.90;;;;;;4993348;28;20180;-76
2023/04/20 09:33:11;;;;;;;9.10;8.13;;;8.50;99.90;;;;;;4994976;28;20165;-76
2023/04/20 09:35:41;;;;;;;9.97;8.43;;;8.90;99.90;;;;;;4994938;28;20195;-76
2023/04/20 09:38:08;;;;;;;11.13;7.70;;;9.40;99.90;;;;;;4978055;28;20626;-76
2023/04/20 09:40:34;;;;;;;7.70;6.97;;;9.80;99.90;;;;;;4997100;28;20165;-76
2023/04/20 09:43:09;;;;;;;7.37;6.60;;;10.50;99.90;;;;;;4995816;28;20165;-77
2023/04/20 09:45:37;;;;;;;7.57;5.87;;;11.60;99.90;;;;;;4994321;28;20208;-79
2023/04/20 09:48:07;;;;;;;6.13;5.53;;;12.40;99.90;;;;;;4978141;28;20172;-76
2023/04/20 09:50:37;;;;;;;6.53;5.72;;;12.70;99.90;;;;;;4994934;28;20207;-76
2023/04/20 09:53:04;;;;;;;7.03;5.80;;;12.60;99.90;;;;;;4994943;28;20165;-76
2023/04/20 09:55:30;;;;;;;6.80;5.53;;;12.30;99.90;;;;;;4994865;28;20200;-77
2023/04/20 09:57:57;;;;;;;6.67;5.97;;;11.80;99.90;;;;;;4994432;28;20160;-76
2023/04/20 10:00:24;;;;;;;6.50;5.70;;;11.30;99.90;;;;;;4994612;28;20181;-76
2023/04/20 10:02:50;;;;;;;6.67;6.07;;;10.70;99.90;;;;;;4994731;28;20229;-76
2023/04/20 10:05:16;;;;;;;8.17;7.10;;;10.40;99.90;;;;;;4977664;28;20780;-76
2023/04/20 10:07:42;;;;;;;6.50;5.90;;;10.00;99.90;;;;;;4995580;28;20176;-76
2023/04/20 10:10:15;;;;;;;6.63;6.03;;;9.90;99.90;;;;;;4994803;28;20226;-76
2023/04/20 10:12:51;;;;;;;7.53;6.73;;;9.60;99.90;;;;;;4994323;28;20172;-76
2023/04/20 10:15:17;;;;;;;7.63;6.73;;;9.50;99.90;;;;;;4994985;28;20210;-76
2023/04/20 10:17:43;;;;;;;6.00;5.50;;;9.60;99.90;;;;;;4980861;28;20208;-76
2023/04/20 10:20:24;;;;;;;7.10;5.60;;;9.60;99.90;;;;;;4983837;28;20616;-78
2023/04/20 10:22:52;;;;;;;7.40;5.97;;;9.70;99.90;;;;;;4983316;28;20206;-79
2023/04/20 10:25:23;;;;;;;6.23;5.63;;;9.80;99.90;;;;;;4984138;28;20301;-79
2023/04/20 10:28:04;;;;;;;5.90;5.40;;;9.90;99.90;;;;;;5002224;28;20215;-79
2023/04/20 10:30:31;;;;;;;5.57;5.07;;;9.90;99.90;;;;;;5002808;28;20247;-78
2023/04/20 10:33:06;;;;;;;5.60;5.10;;;9.90;99.90;;;;;;4999511;28;20525;-78
2023/04/20 10:35:48;;;;;;;6.43;5.73;;;9.90;99.90;;;;;;4982341;28;20215;-77
2023/04/20 10:38:15;;;;;;;6.30;5.70;;;9.90;99.90;;;;;;4998426;28;20164;-75
2023/04/20 10:40:41;;;;;;;6.73;5.63;;;10.00;99.90;;;;;;4998267;28;20175;-76
2023/04/20 10:43:22;;;;;;;6.83;5.10;;;10.00;99.90;;;;;;4998084;28;20307;-78
2023/04/20 10:45:49;;;;;;;6.13;5.00;;;10.10;99.90;;;;;;4998700;28;20202;-80
2023/04/20 10:48:15;;;;;;;5.57;5.07;;;10.10;99.90;;;;;;4984351;28;20192;-82
2023/04/20 10:50:41;;;;;;;5.30;4.90;;;10.20;99.90;;;;;;4981447;28;20169;-78
2023/04/20 10:53:25;;;;;;;5.87;4.87;;;10.10;99.90;;;;;;4998265;28;20191;-78
2023/04/20 10:55:58;;;;;;;6.00;5.40;;;10.20;99.90;;;;;;4999106;28;20603;-78
2023/04/20 10:58:25;;;;;;;5.37;4.90;;;10.50;99.90;;;;;;4997141;28;20681;-77
2023/04/20 11:01:01;;;;;;;5.80;5.30;;;10.50;99.90;;;;;;4998476;28;20172;-78
2023/04/20 11:03:28;;;;;;;6.07;5.47;;;10.80;99.90;;;;;;4998839;28;20212;-78
2023/04/20 11:05:56;;;;;;;6.57;5.73;;;11.10;99.90;;;;;;4981076;28;20200;-78
2023/04/20 11:08:22;;;;;;;6.77;6.03;;;11.20;99.90;;;;;;4998494;28;20176;-78
2023/04/20 11:10:47;;;;;;;6.87;6.17;;;11.30;99.90;;;;;;4981312;28;20168;-78
2023/04/20 11:13:21;;;;;;;6.30;5.70;;;11.40;99.90;;;;;;4999168;28;20164;-78
2023/04/20 11:15:47;;;;;;;6.33;5.73;;;11.30;99.90;;;;;;4992350;23;20232;-71
2023/04/20 11:18:12;;;;;;;8.30;6.10;;;11.20;99.90;;;;;;4976476;28;20173;-71
2023/04/20 11:20:58;;;;;;;6.20;5.60;;;11.30;99.90;;;;;;4976244;28;20181;-72
2023/04/20 11:23:26;;;;;;;7.03;6.33;;;11.20;99.90;;;;;;4977295;28;20229;-72
2023/04/20 11:25:55;;;;;;;7.57;6.77;;;11.10;99.90;;;;;;4977240;28;20193;-72
2023/04/20 11:28:22;;;;;;;7.67;6.87;;;11.10;99.90;;;;;;4978444;28;20693;-72
2023/04/20 11:30:49;;;;;;;7.63;6.80;;;11.60;99.90;;;;;;4975962;28;20184;-71
2023/04/20 11:33:35;;;;;;;7.57;6.77;;;12.00;99.90;;;;;;4977520;28;20240;-71
2023/04/20 11:36:01;;;;;;;7.93;6.83;;;11.60;99.90;;;;;;4977026;28;20216;-70
2023/04/20 11:38:32;;;;;;;7.77;6.90;;;11.60;99.90;;;;;;4977011;28;20248;-70
2023/04/20 11:41:03;;;;;;;8.73;7.43;;;12.00;99.90;;;;;;4977566;28;20161;-72
2023/04/20 11:43:32;;;;;;;8.37;7.47;;;12.30;99.90;;;;;;4977731;28;20204;-69
2023/04/20 11:46:01;;;;;;;8.40;7.50;;;12.50;99.90;;;;;;4975570;28;20228;-68
2023/04/20 11:48:32;;;;;;;7.95;6.97;;;12.60;99.90;;;;;;4976495;28;20169;-69
2023/04/20 11:50:58;;;;;;;8.52;6.60;;;12.90;99.90;;;;;;4976463;28;20158;-70
2023/04/20 11:53:24;;;;;;;10.88;7.32;;;12.70;99.90;;;;;;4975127;28;20196;-68
2023/04/20 11:55:50;;;;;;;9.90;7.18;;;12.90;99.90;;;;;;4975212;28;20693;-67
2023/04/20 11:58:16;;;;;;;8.25;7.20;;;13.10;99.90;;;;;;4978969;28;20204;-68
2023/04/20 12:00:41;;;;;;;7.18;6.47;;;13.20;99.90;;;;;;4978042;28;20228;-69
2023/04/20 12:03:07;;;;;;;9.57;7.20;;;13.20;99.90;;;;;;4977914;28;20184;-69
2023/04/20 12:05:33;;;;;;;7.90;6.95;;;13.60;99.90;;;;;;4978735;28;20219;-72
2023/04/20 12:07:59;;;;;;;8.52;7.63;;;13.20;99.90;;;;;;4978101;28;20178;-69
2023/04/20 12:10:25;;;;;;;8.18;6.97;;;13.20;99.90;;;;;;4977848;28;20742;-71
2023/04/20 12:12:52;;;;;;;8.45;6.82;;;13.50;99.90;;;;;;4991446;28;20698;-71
2023/04/20 12:15:18;;;;;;;7.97;7.18;;;13.90;99.90;;;;;;4976616;28;20211;-72
2023/04/20 12:17:43;;;;;;;8.15;6.70;;;13.80;99.90;;;;;;4975147;28;20177;-71
2023/04/20 12:20:10;;;;;;;8.30;7.00;;;13.50;99.90;;;;;;4991169;28;20227;-71
2023/04/20 12:22:37;;;;;;;8.02;7.07;;;13.50;99.90;;;;;;4991251;28;20188;-71
2023/04/20 12:25:04;;;;;;;7.75;6.95;;;13.40;99.90;;;;;;4976221;28;20232;-71
2023/04/20 12:27:30;;;;;;;8.68;7.78;;;13.20;99.90;;;;;;4976421;28;20538;-71
2023/04/20 12:29:55;;;;;;;10.48;7.57;;;12.80;99.90;;;;;;4974799;28;20181;-70
2023/04/20 12:32:21;;;;;;;10.18;8.27;;;12.40;99.90;;;;;;4976130;28;20185;-70
2023/04/20 12:34:47;;;;;;;9.98;7.75;;;12.00;99.90;;;;;;4976229;28;20201;-70
2023/04/20 12:37:13;;;;;;;9.35;7.72;;;11.80;99.90;;;;;;4975947;28;20179;-71
2023/04/20 12:39:39;;;;;;;10.83;8.23;;;11.80;99.90;;;;;;4974772;28;20223;-71
2023/04/20 12:42:05;;;;;;;10.68;7.93;;;12.40;99.90;;;;;;4976625;28;20252;-71
2023/04/20 12:44:31;;;;;;;9.00;7.85;;;12.70;99.90;;;;;;4975877;28;20212;-71
2023/04/20 12:46:56;;;;;;;10.68;8.25;;;12.60;99.90;;;;;;4974534;28;20177;-73
2023/04/20 12:49:22;;;;;;;9.50;8.50;;;12.40;99.90;;;;;;4976108;28;20169;-68